sensor_id;sensor_type;location;lat;lon;timestamp;temperature;humidity
7174;DHT22;3628;48.654;8.932;2023-04-08T00:02:11;8.30;99.90
7174;DHT22;3628;48.654;8.932;2023-04-08T00:04:36;8.30;99.90
7174;DHT22;3628;48.654;8.932;2023-04-08T00:07:02;8.30;99.90
7174;DHT22;3628;48.654;8.932;2023-04-08T00:09:27;8.30;99.90
7174;DHT22;3628;48.654;8.932;2023-04-08T00:11:53;8.20;99.90
7174;DHT22;3628;48.654;8.932;2023-04-08T00:14:18;8.10;99.90
7174;DHT22;3628;48.654;8.932;2023-04-08T00:16:44;8.10;99.90
7174;DHT22;3628;48.654;8.932;2023-04-08T00:19:10;7.90;99.90
7174;DHT22;3628;48.654;8.932;2023-04-08T00:21:35;7.90;99.90
7174;DHT22;3628;48.654;8.932;2023-04-08T00:24:01;7.80;99.90
7174;DHT22;3628;48.654;8.932;2023-04-08T00:26:27;7.80;99.90
7174;DHT22;3628;48.654;8.932;2023-04-08T00:28:52;7.70;99.90
7174;DHT22;3628;48.654;8.932;2023-04-08T00:31:18;7.70;99.90
7174;DHT22;3628;48.654;8.932;2023-04-08T00:33:43;7.70;99.90
7174;DHT22;3628;48.654;8.932;2023-04-08T00:36:09;7.70;99.90
7174;DHT22;3628;48.654;8.932;2023-04-08T00:38:34;7.70;99.90
7174;DHT22;3628;48.654;8.932;2023-04-08T00:41:00;7.60;99.90
7174;DHT22;3628;48.654;8.932;2023-04-08T00:43:25;7.60;99.90
7174;DHT22;3628;48.654;8.932;2023-04-08T00:45:51;7.60;99.90
7174;DHT22;3628;48.654;8.932;2023-04-08T00:48:16;7.60;99.90
7174;DHT22;3628;48.654;8.932;2023-04-08T00:50:43;7.60;99.90
7174;DHT22;3628;48.654;8.932;2023-04-08T00:53:08;7.50;99.90
7174;DHT22;3628;48.654;8.932;2023-04-08T00:55:34;7.50;99.90
7174;DHT22;3628;48.654;8.932;2023-04-08T00:58:00;7.50;99.90
7174;DHT22;3628;48.654;8.932;2023-04-08T01:00:28;7.50;99.90
7174;DHT22;3628;48.654;8.932;2023-04-08T01:05:39;7.40;99.90
7174;DHT22;3628;48.654;8.932;2023-04-08T01:08:09;7.40;99.90
7174;DHT22;3628;48.654;8.932;2023-04-08T01:10:37;7.40;99.90
7174;DHT22;3628;48.654;8.932;2023-04-08T01:13:11;7.40;99.90
7174;DHT22;3628;48.654;8.932;2023-04-08T01:15:39;7.50;99.90
7174;DHT22;3628;48.654;8.932;2023-04-08T01:18:09;7.50;99.90
7174;DHT22;3628;48.654;8.932;2023-04-08T01:20:37;7.50;99.90
7174;DHT22;3628;48.654;8.932;2023-04-08T01:23:24;7.50;99.90
7174;DHT22;3628;48.654;8.932;2023-04-08T01:25:54;7.40;99.90
7174;DHT22;3628;48.654;8.932;2023-04-08T01:28:24;7.40;99.90
7174;DHT22;3628;48.654;8.932;2023-04-08T01:30:53;7.40;99.90
7174;DHT22;3628;48.654;8.932;2023-04-08T01:33:20;7.40;99.90
7174;DHT22;3628;48.654;8.932;2023-04-08T01:35:46;7.50;99.90
7174;DHT22;3628;48.654;8.932;2023-04-08T01:38:17;7.50;99.90
7174;DHT22;3628;48.654;8.932;2023-04-08T01:40:45;7.40;99.90
7174;DHT22;3628;48.654;8.932;2023-04-08T01:43:13;7.40;99.90
7174;DHT22;3628;48.654;8.932;2023-04-08T01:45:42;7.40;99.90
7174;DHT22;3628;48.654;8.932;2023-04-08T01:48:08;7.50;99.90
7174;DHT22;3628;48.654;8.932;2023-04-08T01:50:34;7.50;99.90
7174;DHT22;3628;48.654;8.932;2023-04-08T01:53:01;7.50;99.90
7174;DHT22;3628;48.654;8.932;2023-04-08T01:55:28;7.50;99.90
7174;DHT22;3628;48.654;8.932;2023-04-08T01:57:55;7.50;99.90
7174;DHT22;3628;48.654;8.932;2023-04-08T02:00:27;7.50;99.90
7174;DHT22;3628;48.654;8.932;2023-04-08T02:02:54;7.50;99.90
7174;DHT22;3628;48.654;8.932;2023-04-08T02:05:20;7.40;99.90
7174;DHT22;3628;48.654;8.932;2023-04-08T02:07:47;7.40;99.90
7174;DHT22;3628;48.654;8.932;2023-04-08T02:10:12;7.40;99.90
7174;DHT22;3628;48.654;8.932;2023-04-08T02:12:38;7.40;99.90
7174;DHT22;3628;48.654;8.932;2023-04-08T02:15:04;7.40;99.90
7174;DHT22;3628;48.654;8.932;2023-04-08T02:17:43;7.40;99.90
7174;DHT22;3628;48.654;8.932;2023-04-08T02:20:20;7.40;99.90
7174;DHT22;3628;48.654;8.932;2023-04-08T02:25:15;7.40;99.90
7174;DHT22;3628;48.654;8.932;2023-04-08T02:27:42;7.40;99.90
7174;DHT22;3628;48.654;8.932;2023-04-08T02:30:10;7.40;99.90
7174;DHT22;3628;48.654;8.932;2023-04-08T02:32:36;7.40;99.90
7174;DHT22;3628;48.654;8.932;2023-04-08T02:35:04;7.40;99.90
7174;DHT22;3628;48.654;8.932;2023-04-08T02:37:30;7.40;99.90
7174;DHT22;3628;48.654;8.932;2023-04-08T02:39:56;7.40;99.90
7174;DHT22;3628;48.654;8.932;2023-04-08T02:42:22;7.40;99.90
7174;DHT22;3628;48.654;8.932;2023-04-08T02:44:47;7.30;99.90
7174;DHT22;3628;48.654;8.932;2023-04-08T02:47:13;7.20;99.90
7174;DHT22;3628;48.654;8.932;2023-04-08T02:49:39;7.20;99.90
7174;DHT22;3628;48.654;8.932;2023-04-08T02:52:04;7.20;99.90
7174;DHT22;3628;48.654;8.932;2023-04-08T02:54:30;7.20;99.90
7174;DHT22;3628;48.654;8.932;2023-04-08T02:56:56;7.30;99.90
7174;DHT22;3628;48.654;8.932;2023-04-08T02:59:22;7.30;99.90
7174;DHT22;3628;48.654;8.932;2023-04-08T03:01:47;7.20;99.90
7174;DHT22;3628;48.654;8.932;2023-04-08T03:04:13;7.20;99.90
7174;DHT22;3628;48.654;8.932;2023-04-08T03:06:39;7.20;99.90
7174;DHT22;3628;48.654;8.932;2023-04-08T03:09:04;7.20;99.90
7174;DHT22;3628;48.654;8.932;2023-04-08T03:11:30;7.20;99.90
7174;DHT22;3628;48.654;8.932;2023-04-08T03:13:56;7.20;99.90
7174;DHT22;3628;48.654;8.932;2023-04-08T03:16:22;7.20;99.90
7174;DHT22;3628;48.654;8.932;2023-04-08T03:18:49;7.30;99.90
7174;DHT22;3628;48.654;8.932;2023-04-08T03:21:15;7.30;99.90
7174;DHT22;3628;48.654;8.932;2023-04-08T03:23:41;7.20;99.90
7174;DHT22;3628;48.654;8.932;2023-04-08T03:26:06;7.20;99.90
7174;DHT22;3628;48.654;8.932;2023-04-08T03:28:32;7.20;99.90
7174;DHT22;3628;48.654;8.932;2023-04-08T03:30:58;7.20;99.90
7174;DHT22;3628;48.654;8.932;2023-04-08T03:33:25;7.20;99.90
7174;DHT22;3628;48.654;8.932;2023-04-08T03:35:50;7.30;99.90
7174;DHT22;3628;48.654;8.932;2023-04-08T03:38:16;7.30;99.90
7174;DHT22;3628;48.654;8.932;2023-04-08T03:40:42;7.30;99.90
7174;DHT22;3628;48.654;8.932;2023-04-08T03:43:07;7.30;99.90
7174;DHT22;3628;48.654;8.932;2023-04-08T03:45:33;7.30;99.90
7174;DHT22;3628;48.654;8.932;2023-04-08T03:47:58;7.20;99.90
7174;DHT22;3628;48.654;8.932;2023-04-08T03:50:24;7.20;99.90
7174;DHT22;3628;48.654;8.932;2023-04-08T03:52:49;7.10;99.90
7174;DHT22;3628;48.654;8.932;2023-04-08T03:55:15;7.10;99.90
7174;DHT22;3628;48.654;8.932;2023-04-08T03:57:41;7.10;99.90
7174;DHT22;3628;48.654;8.932;2023-04-08T04:00:09;7.10;99.90
7174;DHT22;3628;48.654;8.932;2023-04-08T04:02:34;7.10;99.90
7174;DHT22;3628;48.654;8.932;2023-04-08T04:05:00;7.10;99.90
7174;DHT22;3628;48.654;8.932;2023-04-08T04:07:26;7.10;99.90
7174;DHT22;3628;48.654;8.932;2023-04-08T04:09:51;7.20;99.90
7174;DHT22;3628;48.654;8.932;2023-04-08T04:12:20;7.20;99.90
7174;DHT22;3628;48.654;8.932;2023-04-08T04:14:46;7.30;99.90
7174;DHT22;3628;48.654;8.932;2023-04-08T04:17:11;7.30;99.90
7174;DHT22;3628;48.654;8.932;2023-04-08T04:19:37;7.30;99.90
7174;DHT22;3628;48.654;8.932;2023-04-08T04:22:02;7.30;99.90
7174;DHT22;3628;48.654;8.932;2023-04-08T04:24:28;7.30;99.90
7174;DHT22;3628;48.654;8.932;2023-04-08T04:26:53;7.40;99.90
7174;DHT22;3628;48.654;8.932;2023-04-08T04:29:19;7.40;99.90
7174;DHT22;3628;48.654;8.932;2023-04-08T04:31:44;7.40;99.90
7174;DHT22;3628;48.654;8.932;2023-04-08T04:34:10;7.40;99.90
7174;DHT22;3628;48.654;8.932;2023-04-08T04:36:36;7.40;99.90
7174;DHT22;3628;48.654;8.932;2023-04-08T04:39:01;7.40;99.90
7174;DHT22;3628;48.654;8.932;2023-04-08T04:41:27;7.50;99.90
7174;DHT22;3628;48.654;8.932;2023-04-08T04:43:52;7.50;99.90
7174;DHT22;3628;48.654;8.932;2023-04-08T04:46:18;7.50;99.90
7174;DHT22;3628;48.654;8.932;2023-04-08T04:48:43;7.40;99.90
7174;DHT22;3628;48.654;8.932;2023-04-08T04:51:09;7.40;99.90
7174;DHT22;3628;48.654;8.932;2023-04-08T04:53:35;7.40;99.90
7174;DHT22;3628;48.654;8.932;2023-04-08T04:56:01;7.50;99.90
7174;DHT22;3628;48.654;8.932;2023-04-08T04:58:27;7.50;99.90
7174;DHT22;3628;48.654;8.932;2023-04-08T05:00:52;7.50;99.90
7174;DHT22;3628;48.654;8.932;2023-04-08T05:03:18;7.50;99.90
7174;DHT22;3628;48.654;8.932;2023-04-08T05:05:43;7.50;99.90
7174;DHT22;3628;48.654;8.932;2023-04-08T05:08:09;7.60;99.90
7174;DHT22;3628;48.654;8.932;2023-04-08T05:10:39;7.60;99.90
7174;DHT22;3628;48.654;8.932;2023-04-08T05:13:05;7.60;99.90
7174;DHT22;3628;48.654;8.932;2023-04-08T05:15:31;7.60;99.90
7174;DHT22;3628;48.654;8.932;2023-04-08T05:17:57;7.60;99.90
7174;DHT22;3628;48.654;8.932;2023-04-08T05:20:22;7.60;99.90
7174;DHT22;3628;48.654;8.932;2023-04-08T05:22:48;7.60;99.90
7174;DHT22;3628;48.654;8.932;2023-04-08T05:25:14;7.70;99.90
7174;DHT22;3628;48.654;8.932;2023-04-08T05:27:39;7.70;99.90
7174;DHT22;3628;48.654;8.932;2023-04-08T05:30:05;7.70;99.90
7174;DHT22;3628;48.654;8.932;2023-04-08T05:32:31;7.70;99.90
7174;DHT22;3628;48.654;8.932;2023-04-08T05:34:57;7.70;99.90
7174;DHT22;3628;48.654;8.932;2023-04-08T05:37:22;7.70;99.90
7174;DHT22;3628;48.654;8.932;2023-04-08T05:39:48;7.70;99.90
7174;DHT22;3628;48.654;8.932;2023-04-08T05:42:13;7.70;99.90
7174;DHT22;3628;48.654;8.932;2023-04-08T05:44:39;7.80;99.90
7174;DHT22;3628;48.654;8.932;2023-04-08T05:47:08;7.90;99.90
7174;DHT22;3628;48.654;8.932;2023-04-08T05:49:33;8.00;99.90
7174;DHT22;3628;48.654;8.932;2023-04-08T05:52:00;8.00;99.90
7174;DHT22;3628;48.654;8.932;2023-04-08T05:54:25;8.10;99.90
7174;DHT22;3628;48.654;8.932;2023-04-08T05:56:51;8.10;99.90
7174;DHT22;3628;48.654;8.932;2023-04-08T05:59:16;8.10;99.90
7174;DHT22;3628;48.654;8.932;2023-04-08T06:01:42;8.00;99.90
7174;DHT22;3628;48.654;8.932;2023-04-08T06:04:07;8.00;99.90
7174;DHT22;3628;48.654;8.932;2023-04-08T06:06:33;8.10;99.90
7174;DHT22;3628;48.654;8.932;2023-04-08T06:08:58;8.20;99.90
7174;DHT22;3628;48.654;8.932;2023-04-08T06:11:24;8.20;99.90
7174;DHT22;3628;48.654;8.932;2023-04-08T06:13:49;8.30;99.90
7174;DHT22;3628;48.654;8.932;2023-04-08T06:16:16;8.30;99.90
7174;DHT22;3628;48.654;8.932;2023-04-08T06:18:42;8.30;99.90
7174;DHT22;3628;48.654;8.932;2023-04-08T06:21:08;8.30;99.90
7174;DHT22;3628;48.654;8.932;2023-04-08T06:23:34;8.20;99.90
7174;DHT22;3628;48.654;8.932;2023-04-08T06:26:00;8.20;99.90
7174;DHT22;3628;48.654;8.932;2023-04-08T06:28:25;8.10;99.90
7174;DHT22;3628;48.654;8.932;2023-04-08T06:30:53;8.10;99.90
7174;DHT22;3628;48.654;8.932;2023-04-08T06:33:19;8.20;99.90
7174;DHT22;3628;48.654;8.932;2023-04-08T06:35:44;8.10;99.90
7174;DHT22;3628;48.654;8.932;2023-04-08T06:38:10;8.00;99.90
7174;DHT22;3628;48.654;8.932;2023-04-08T06:40:38;7.90;99.90
7174;DHT22;3628;48.654;8.932;2023-04-08T06:43:03;7.80;99.90
7174;DHT22;3628;48.654;8.932;2023-04-08T06:45:29;7.70;99.90
7174;DHT22;3628;48.654;8.932;2023-04-08T06:47:54;7.70;99.90
7174;DHT22;3628;48.654;8.932;2023-04-08T06:50:21;7.60;99.90
7174;DHT22;3628;48.654;8.932;2023-04-08T06:52:46;7.60;99.90
7174;DHT22;3628;48.654;8.932;2023-04-08T06:55:12;7.60;99.90
7174;DHT22;3628;48.654;8.932;2023-04-08T06:57:37;7.70;99.90
7174;DHT22;3628;48.654;8.932;2023-04-08T07:00:03;7.80;99.90
7174;DHT22;3628;48.654;8.932;2023-04-08T07:02:29;7.80;99.90
7174;DHT22;3628;48.654;8.932;2023-04-08T07:04:54;7.80;99.90
7174;DHT22;3628;48.654;8.932;2023-04-08T07:07:20;7.80;99.90
7174;DHT22;3628;48.654;8.932;2023-04-08T07:09:45;7.80;99.90
7174;DHT22;3628;48.654;8.932;2023-04-08T07:12:11;7.90;99.90
7174;DHT22;3628;48.654;8.932;2023-04-08T07:14:37;7.90;99.90
7174;DHT22;3628;48.654;8.932;2023-04-08T07:17:02;8.10;99.90
7174;DHT22;3628;48.654;8.932;2023-04-08T07:19:28;8.20;99.90
7174;DHT22;3628;48.654;8.932;2023-04-08T07:21:53;8.10;99.90
7174;DHT22;3628;48.654;8.932;2023-04-08T07:24:19;8.20;99.90
7174;DHT22;3628;48.654;8.932;2023-04-08T07:26:45;8.30;99.90
7174;DHT22;3628;48.654;8.932;2023-04-08T07:29:10;8.30;99.90
7174;DHT22;3628;48.654;8.932;2023-04-08T07:31:36;8.30;99.90
7174;DHT22;3628;48.654;8.932;2023-04-08T07:34:01;8.30;99.90
7174;DHT22;3628;48.654;8.932;2023-04-08T07:36:27;8.30;99.90
7174;DHT22;3628;48.654;8.932;2023-04-08T07:38:53;8.30;99.90
7174;DHT22;3628;48.654;8.932;2023-04-08T07:41:18;8.10;99.90
7174;DHT22;3628;48.654;8.932;2023-04-08T07:43:45;8.20;99.90
7174;DHT22;3628;48.654;8.932;2023-04-08T07:46:10;8.30;99.90
7174;DHT22;3628;48.654;8.932;2023-04-08T07:48:36;8.30;99.90
7174;DHT22;3628;48.654;8.932;2023-04-08T07:51:04;8.30;99.90
7174;DHT22;3628;48.654;8.932;2023-04-08T07:53:31;8.30;99.90
7174;DHT22;3628;48.654;8.932;2023-04-08T07:55:57;8.30;99.90
7174;DHT22;3628;48.654;8.932;2023-04-08T07:58:23;8.30;99.90
7174;DHT22;3628;48.654;8.932;2023-04-08T08:00:49;8.20;99.90
7174;DHT22;3628;48.654;8.932;2023-04-08T08:03:15;8.10;99.90
7174;DHT22;3628;48.654;8.932;2023-04-08T08:05:40;8.10;99.90
7174;DHT22;3628;48.654;8.932;2023-04-08T08:08:06;8.10;99.90
7174;DHT22;3628;48.654;8.932;2023-04-08T08:10:32;8.20;99.90
7174;DHT22;3628;48.654;8.932;2023-04-08T08:12:58;8.20;99.90
7174;DHT22;3628;48.654;8.932;2023-04-08T08:15:24;8.40;99.90
7174;DHT22;3628;48.654;8.932;2023-04-08T08:17:49;8.50;99.90
7174;DHT22;3628;48.654;8.932;2023-04-08T08:20:15;8.60;99.90
7174;DHT22;3628;48.654;8.932;2023-04-08T08:22:41;8.70;99.90
7174;DHT22;3628;48.654;8.932;2023-04-08T08:25:07;8.60;99.90
7174;DHT22;3628;48.654;8.932;2023-04-08T08:27:34;8.60;99.90
7174;DHT22;3628;48.654;8.932;2023-04-08T08:29:59;8.60;99.90
7174;DHT22;3628;48.654;8.932;2023-04-08T08:32:25;8.80;99.90
7174;DHT22;3628;48.654;8.932;2023-04-08T08:34:51;8.90;99.90
7174;DHT22;3628;48.654;8.932;2023-04-08T08:37:16;9.00;99.90
7174;DHT22;3628;48.654;8.932;2023-04-08T08:39:42;9.10;99.90
7174;DHT22;3628;48.654;8.932;2023-04-08T08:42:26;9.30;99.90
7174;DHT22;3628;48.654;8.932;2023-04-08T08:44:52;9.40;99.90
7174;DHT22;3628;48.654;8.932;2023-04-08T08:47:18;9.50;99.90
7174;DHT22;3628;48.654;8.932;2023-04-08T08:49:44;9.50;99.90
7174;DHT22;3628;48.654;8.932;2023-04-08T08:52:15;9.40;99.90
7174;DHT22;3628;48.654;8.932;2023-04-08T08:54:41;9.40;99.90
7174;DHT22;3628;48.654;8.932;2023-04-08T08:57:19;9.60;99.90
7174;DHT22;3628;48.654;8.932;2023-04-08T08:59:46;9.70;99.90
7174;DHT22;3628;48.654;8.932;2023-04-08T09:02:26;9.60;99.90
7174;DHT22;3628;48.654;8.932;2023-04-08T09:05:02;9.60;99.90
7174;DHT22;3628;48.654;8.932;2023-04-08T09:07:30;9.50;99.90
7174;DHT22;3628;48.654;8.932;2023-04-08T09:09:57;9.50;99.90
7174;DHT22;3628;48.654;8.932;2023-04-08T09:12:24;9.50;99.90
7174;DHT22;3628;48.654;8.932;2023-04-08T09:14:50;9.70;99.90
7174;DHT22;3628;48.654;8.932;2023-04-08T09:17:37;9.70;99.90
7174;DHT22;3628;48.654;8.932;2023-04-08T09:22:58;9.50;99.90
7174;DHT22;3628;48.654;8.932;2023-04-08T09:25:28;9.50;99.90
7174;DHT22;3628;48.654;8.932;2023-04-08T09:27:54;9.60;99.90
7174;DHT22;3628;48.654;8.932;2023-04-08T09:30:21;9.70;99.90
7174;DHT22;3628;48.654;8.932;2023-04-08T09:32:48;9.80;99.90
7174;DHT22;3628;48.654;8.932;2023-04-08T09:35:15;9.90;99.90
7174;DHT22;3628;48.654;8.932;2023-04-08T09:37:41;10.00;99.90
7174;DHT22;3628;48.654;8.932;2023-04-08T09:40:07;10.20;99.90
7174;DHT22;3628;48.654;8.932;2023-04-08T09:42:35;10.30;99.90
7174;DHT22;3628;48.654;8.932;2023-04-08T09:45:04;10.40;99.90
7174;DHT22;3628;48.654;8.932;2023-04-08T09:47:36;10.50;99.90
7174;DHT22;3628;48.654;8.932;2023-04-08T09:50:04;10.60;99.90
7174;DHT22;3628;48.654;8.932;2023-04-08T09:52:45;10.60;99.90
7174;DHT22;3628;48.654;8.932;2023-04-08T09:55:16;10.70;99.90
7174;DHT22;3628;48.654;8.932;2023-04-08T10:00:23;10.80;99.90
7174;DHT22;3628;48.654;8.932;2023-04-08T10:05:26;10.90;99.90
7174;DHT22;3628;48.654;8.932;2023-04-08T10:07:52;11.00;99.90
7174;DHT22;3628;48.654;8.932;2023-04-08T10:10:20;11.10;99.90
7174;DHT22;3628;48.654;8.932;2023-04-08T10:12:46;11.20;99.90
7174;DHT22;3628;48.654;8.932;2023-04-08T10:15:32;11.30;99.90
7174;DHT22;3628;48.654;8.932;2023-04-08T10:20:40;11.30;99.90
7174;DHT22;3628;48.654;8.932;2023-04-08T10:38:23;12.20;99.90
7174;DHT22;3628;48.654;8.932;2023-04-08T10:40:49;12.10;99.90
7174;DHT22;3628;48.654;8.932;2023-04-08T10:43:16;12.10;99.90
7174;DHT22;3628;48.654;8.932;2023-04-08T10:45:43;12.00;99.90
7174;DHT22;3628;48.654;8.932;2023-04-08T10:48:19;11.80;99.90
7174;DHT22;3628;48.654;8.932;2023-04-08T10:51:00;11.80;99.90
7174;DHT22;3628;48.654;8.932;2023-04-08T10:53:31;11.60;99.90
7174;DHT22;3628;48.654;8.932;2023-04-08T10:58:32;11.60;99.90
7174;DHT22;3628;48.654;8.932;2023-04-08T11:01:05;11.70;99.90
7174;DHT22;3628;48.654;8.932;2023-04-08T11:03:32;11.80;99.90
7174;DHT22;3628;48.654;8.932;2023-04-08T11:06:02;11.80;99.90
7174;DHT22;3628;48.654;8.932;2023-04-08T11:08:29;11.60;99.90
7174;DHT22;3628;48.654;8.932;2023-04-08T11:10:55;11.50;99.90
7174;DHT22;3628;48.654;8.932;2023-04-08T11:13:21;11.50;99.90
7174;DHT22;3628;48.654;8.932;2023-04-08T11:15:48;11.40;99.90
7174;DHT22;3628;48.654;8.932;2023-04-08T11:18:14;11.30;99.90
7174;DHT22;3628;48.654;8.932;2023-04-08T11:20:42;11.30;99.90
7174;DHT22;3628;48.654;8.932;2023-04-08T11:23:15;11.20;99.90
7174;DHT22;3628;48.654;8.932;2023-04-08T11:25:42;11.00;99.90
7174;DHT22;3628;48.654;8.932;2023-04-08T11:28:08;11.00;99.90
7174;DHT22;3628;48.654;8.932;2023-04-08T11:30:34;10.90;99.90
7174;DHT22;3628;48.654;8.932;2023-04-08T11:33:00;10.80;99.90
7174;DHT22;3628;48.654;8.932;2023-04-08T11:35:29;10.80;99.90
7174;DHT22;3628;48.654;8.932;2023-04-08T11:37:57;10.80;99.90
7174;DHT22;3628;48.654;8.932;2023-04-08T11:40:23;10.70;99.90
7174;DHT22;3628;48.654;8.932;2023-04-08T11:42:51;10.70;99.90
7174;DHT22;3628;48.654;8.932;2023-04-08T11:45:18;10.70;99.90
7174;DHT22;3628;48.654;8.932;2023-04-08T11:47:46;10.70;99.90
7174;DHT22;3628;48.654;8.932;2023-04-08T11:50:21;10.60;99.90
7174;DHT22;3628;48.654;8.932;2023-04-08T11:52:48;10.60;99.90
7174;DHT22;3628;48.654;8.932;2023-04-08T11:55:40;10.60;99.90
7174;DHT22;3628;48.654;8.932;2023-04-08T11:58:06;10.40;99.90
7174;DHT22;3628;48.654;8.932;2023-04-08T12:00:32;10.40;99.90
7174;DHT22;3628;48.654;8.932;2023-04-08T12:02:57;10.40;99.90
7174;DHT22;3628;48.654;8.932;2023-04-08T12:05:23;10.40;99.90
7174;DHT22;3628;48.654;8.932;2023-04-08T12:07:49;10.40;99.90
7174;DHT22;3628;48.654;8.932;2023-04-08T12:10:15;10.50;99.90
7174;DHT22;3628;48.654;8.932;2023-04-08T12:12:40;10.60;99.90
7174;DHT22;3628;48.654;8.932;2023-04-08T12:15:06;10.50;99.90
7174;DHT22;3628;48.654;8.932;2023-04-08T12:17:33;10.60;99.90
7174;DHT22;3628;48.654;8.932;2023-04-08T12:19:58;10.70;99.90
7174;DHT22;3628;48.654;8.932;2023-04-08T12:22:24;10.70;99.90
7174;DHT22;3628;48.654;8.932;2023-04-08T12:24:50;10.70;99.90
7174;DHT22;3628;48.654;8.932;2023-04-08T12:27:15;10.80;99.90
7174;DHT22;3628;48.654;8.932;2023-04-08T12:29:41;10.70;99.90
7174;DHT22;3628;48.654;8.932;2023-04-08T12:32:07;10.80;99.90
7174;DHT22;3628;48.654;8.932;2023-04-08T12:34:33;10.80;99.90
7174;DHT22;3628;48.654;8.932;2023-04-08T12:36:59;10.70;99.90
7174;DHT22;3628;48.654;8.932;2023-04-08T12:39:24;10.60;99.90
7174;DHT22;3628;48.654;8.932;2023-04-08T12:41:50;10.60;99.90
7174;DHT22;3628;48.654;8.932;2023-04-08T12:44:16;10.60;99.90
7174;DHT22;3628;48.654;8.932;2023-04-08T12:46:41;10.60;99.90
7174;DHT22;3628;48.654;8.932;2023-04-08T12:49:07;10.60;99.90
7174;DHT22;3628;48.654;8.932;2023-04-08T12:51:34;10.60;99.90
7174;DHT22;3628;48.654;8.932;2023-04-08T12:54:03;10.60;99.90
7174;DHT22;3628;48.654;8.932;2023-04-08T12:56:29;10.70;99.90
7174;DHT22;3628;48.654;8.932;2023-04-08T12:58:56;10.80;99.90
7174;DHT22;3628;48.654;8.932;2023-04-08T13:01:22;10.80;99.90
7174;DHT22;3628;48.654;8.932;2023-04-08T13:03:47;10.80;99.90
7174;DHT22;3628;48.654;8.932;2023-04-08T13:06:13;10.80;99.90
7174;DHT22;3628;48.654;8.932;2023-04-08T13:08:39;10.60;99.90
7174;DHT22;3628;48.654;8.932;2023-04-08T13:11:06;10.50;99.90
7174;DHT22;3628;48.654;8.932;2023-04-08T13:13:32;10.40;99.90
7174;DHT22;3628;48.654;8.932;2023-04-08T13:15:58;10.50;99.90
7174;DHT22;3628;48.654;8.932;2023-04-08T13:18:23;10.40;99.90
7174;DHT22;3628;48.654;8.932;2023-04-08T13:20:49;10.40;99.90
7174;DHT22;3628;48.654;8.932;2023-04-08T13:23:15;10.50;99.90
7174;DHT22;3628;48.654;8.932;2023-04-08T13:25:42;10.70;99.90
7174;DHT22;3628;48.654;8.932;2023-04-08T13:28:08;10.70;99.90
7174;DHT22;3628;48.654;8.932;2023-04-08T13:30:34;10.70;99.90
7174;DHT22;3628;48.654;8.932;2023-04-08T13:32:59;10.50;99.90
7174;DHT22;3628;48.654;8.932;2023-04-08T13:35:25;10.60;99.90
7174;DHT22;3628;48.654;8.932;2023-04-08T13:37:51;10.90;99.90
7174;DHT22;3628;48.654;8.932;2023-04-08T13:40:16;11.00;99.90
7174;DHT22;3628;48.654;8.932;2023-04-08T13:42:42;11.00;99.90
7174;DHT22;3628;48.654;8.932;2023-04-08T13:45:08;11.10;99.90
7174;DHT22;3628;48.654;8.932;2023-04-08T13:47:33;11.10;99.90
7174;DHT22;3628;48.654;8.932;2023-04-08T13:50:00;11.10;99.90
7174;DHT22;3628;48.654;8.932;2023-04-08T13:52:25;11.00;99.90
7174;DHT22;3628;48.654;8.932;2023-04-08T13:54:51;11.10;99.90
7174;DHT22;3628;48.654;8.932;2023-04-08T13:57:17;11.10;99.90
7174;DHT22;3628;48.654;8.932;2023-04-08T13:59:42;11.00;99.90
7174;DHT22;3628;48.654;8.932;2023-04-08T14:02:08;11.00;99.90
7174;DHT22;3628;48.654;8.932;2023-04-08T14:04:34;10.90;99.90
7174;DHT22;3628;48.654;8.932;2023-04-08T14:06:59;11.00;99.90
7174;DHT22;3628;48.654;8.932;2023-04-08T14:09:25;11.10;99.90
7174;DHT22;3628;48.654;8.932;2023-04-08T14:11:50;11.10;99.90
7174;DHT22;3628;48.654;8.932;2023-04-08T14:14:16;11.10;99.90
7174;DHT22;3628;48.654;8.932;2023-04-08T14:16:42;11.10;99.90
7174;DHT22;3628;48.654;8.932;2023-04-08T14:19:08;11.00;99.90
7174;DHT22;3628;48.654;8.932;2023-04-08T14:21:33;11.00;99.90
7174;DHT22;3628;48.654;8.932;2023-04-08T14:23:59;11.00;99.90
7174;DHT22;3628;48.654;8.932;2023-04-08T14:26:25;11.00;99.90
7174;DHT22;3628;48.654;8.932;2023-04-08T14:28:51;11.00;99.90
7174;DHT22;3628;48.654;8.932;2023-04-08T14:31:16;10.90;99.90
7174;DHT22;3628;48.654;8.932;2023-04-08T14:33:42;11.00;99.90
7174;DHT22;3628;48.654;8.932;2023-04-08T14:36:08;11.00;99.90
7174;DHT22;3628;48.654;8.932;2023-04-08T14:38:34;10.90;99.90
7174;DHT22;3628;48.654;8.932;2023-04-08T14:41:00;11.10;99.90
7174;DHT22;3628;48.654;8.932;2023-04-08T14:43:25;11.30;99.90
7174;DHT22;3628;48.654;8.932;2023-04-08T14:45:51;11.20;99.90
7174;DHT22;3628;48.654;8.932;2023-04-08T14:48:17;11.10;99.90
7174;DHT22;3628;48.654;8.932;2023-04-08T14:50:43;11.10;99.90
7174;DHT22;3628;48.654;8.932;2023-04-08T14:53:09;11.10;99.90
7174;DHT22;3628;48.654;8.932;2023-04-08T14:55:35;11.10;99.90
7174;DHT22;3628;48.654;8.932;2023-04-08T14:58:01;11.00;99.90
7174;DHT22;3628;48.654;8.932;2023-04-08T15:00:26;11.10;99.90
7174;DHT22;3628;48.654;8.932;2023-04-08T15:02:52;11.00;99.90
7174;DHT22;3628;48.654;8.932;2023-04-08T15:05:17;11.00;99.90
7174;DHT22;3628;48.654;8.932;2023-04-08T15:07:43;11.00;99.90
7174;DHT22;3628;48.654;8.932;2023-04-08T15:10:09;11.00;99.90
7174;DHT22;3628;48.654;8.932;2023-04-08T15:12:34;10.90;99.90
7174;DHT22;3628;48.654;8.932;2023-04-08T15:15:01;11.00;99.90
7174;DHT22;3628;48.654;8.932;2023-04-08T15:17:26;11.00;99.90
7174;DHT22;3628;48.654;8.932;2023-04-08T15:19:52;11.20;99.90
7174;DHT22;3628;48.654;8.932;2023-04-08T15:22:18;11.30;99.90
7174;DHT22;3628;48.654;8.932;2023-04-08T15:24:44;11.20;99.90
7174;DHT22;3628;48.654;8.932;2023-04-08T15:27:09;11.50;99.90
7174;DHT22;3628;48.654;8.932;2023-04-08T15:29:35;11.50;99.90
7174;DHT22;3628;48.654;8.932;2023-04-08T15:32:01;11.60;99.90
7174;DHT22;3628;48.654;8.932;2023-04-08T15:34:26;11.50;99.90
7174;DHT22;3628;48.654;8.932;2023-04-08T15:36:53;11.40;99.90
7174;DHT22;3628;48.654;8.932;2023-04-08T15:39:21;11.40;99.90
7174;DHT22;3628;48.654;8.932;2023-04-08T15:41:47;11.40;99.90
7174;DHT22;3628;48.654;8.932;2023-04-08T15:44:12;11.30;99.90
7174;DHT22;3628;48.654;8.932;2023-04-08T15:46:38;11.20;99.90
7174;DHT22;3628;48.654;8.932;2023-04-08T15:49:03;11.20;99.90
7174;DHT22;3628;48.654;8.932;2023-04-08T15:51:29;11.10;99.90
7174;DHT22;3628;48.654;8.932;2023-04-08T15:53:54;11.10;99.90
7174;DHT22;3628;48.654;8.932;2023-04-08T15:56:20;11.00;99.90
7174;DHT22;3628;48.654;8.932;2023-04-08T15:58:46;10.90;99.90
7174;DHT22;3628;48.654;8.932;2023-04-08T16:01:12;10.70;99.90
7174;DHT22;3628;48.654;8.932;2023-04-08T16:03:38;10.50;99.90
7174;DHT22;3628;48.654;8.932;2023-04-08T16:06:03;10.40;99.90
7174;DHT22;3628;48.654;8.932;2023-04-08T16:08:30;10.40;99.90
7174;DHT22;3628;48.654;8.932;2023-04-08T16:10:59;10.30;99.90
7174;DHT22;3628;48.654;8.932;2023-04-08T16:13:26;10.20;99.90
7174;DHT22;3628;48.654;8.932;2023-04-08T16:15:54;10.30;99.90
7174;DHT22;3628;48.654;8.932;2023-04-08T16:18:20;10.20;99.90
7174;DHT22;3628;48.654;8.932;2023-04-08T16:20:45;10.20;99.90
7174;DHT22;3628;48.654;8.932;2023-04-08T16:23:11;10.10;99.90
7174;DHT22;3628;48.654;8.932;2023-04-08T16:25:40;10.10;99.90
7174;DHT22;3628;48.654;8.932;2023-04-08T16:28:06;10.00;99.90
7174;DHT22;3628;48.654;8.932;2023-04-08T16:30:31;10.00;99.90
7174;DHT22;3628;48.654;8.932;2023-04-08T16:32:57;10.00;99.90
7174;DHT22;3628;48.654;8.932;2023-04-08T16:35:22;10.00;99.90
7174;DHT22;3628;48.654;8.932;2023-04-08T16:37:48;10.00;99.90
7174;DHT22;3628;48.654;8.932;2023-04-08T16:40:14;10.00;99.90
7174;DHT22;3628;48.654;8.932;2023-04-08T16:42:39;9.90;99.90